Time;durP1;ratioP1;P1;durP2;ratioP2;P2;SDS_P1;SDS_P2;PMS_P1;PMS_P2;Temp;Humidity;BMP_temperature;BMP_pressure;BME280_temperature;BME280_humidity;BME280_pressure;Samples;Min_cycle;Max_cycle;Signal;HPM_P1;HPM_P2
2022/08/31 00:06:14;;;;;;;1.48;0.93;;;24.30;40.50;;;;;;4955643;29;20046;-48
2022/08/31 00:08:41;;;;;;;3.35;1.77;;;24.30;40.70;;;;;;4950658;29;20043;-47
2022/08/31 00:11:12;;;;;;;1.08;0.80;;;24.30;40.90;;;;;;4953576;29;20079;-47
2022/08/31 00:13:40;;;;;;;3.05;0.90;;;24.30;40.90;;;;;;4936674;29;20114;-46
2022/08/31 00:16:11;;;;;;;1.20;1.00;;;24.30;41.10;;;;;;4937063;29;20059;-47
2022/08/31 00:18:40;;;;;;;1.35;0.82;;;24.30;41.10;;;;;;4954075;29;20047;-46
2022/08/31 00:21:07;;;;;;;1.45;0.95;;;24.20;41.00;;;;;;4953509;29;20039;-47
2022/08/31 00:23:34;;;;;;;2.15;1.08;;;24.20;41.10;;;;;;4954337;28;20047;-47
2022/08/31 00:26:03;;;;;;;1.77;0.80;;;24.20;41.10;;;;;;4953600;29;20443;-47
2022/08/31 00:28:30;;;;;;;1.95;1.05;;;24.20;41.30;;;;;;4950184;28;20051;-47
2022/08/31 00:30:57;;;;;;;0.95;0.80;;;24.20;41.50;;;;;;4935134;29;20055;-48
2022/08/31 00:33:25;;;;;;;1.23;0.90;;;24.10;41.40;;;;;;4948551;28;20047;-48
2022/08/31 00:35:54;;;;;;;0.80;0.80;;;24.10;41.40;;;;;;4947959;29;20047;-47
2022/08/31 00:38:21;;;;;;;0.95;0.77;;;24.00;41.60;;;;;;4951125;28;20039;-47
2022/08/31 00:40:50;;;;;;;2.45;1.05;;;24.00;41.70;;;;;;4954369;28;20055;-46
2022/08/31 00:43:45;;;;;;;1.38;1.05;;;24.00;41.70;;;;;;4937415;29;20043;-48
2022/08/31 00:46:16;;;;;;;3.15;1.25;;;24.00;42.00;;;;;;4952773;28;20043;-49
2022/08/31 00:48:50;;;;;;;1.30;1.20;;;23.90;41.90;;;;;;4952716;28;20452;-46
2022/08/31 00:51:20;;;;;;;3.47;1.98;;;23.90;42.10;;;;;;4942569;29;20055;-46
2022/08/31 00:53:52;;;;;;;2.92;1.00;;;23.80;42.00;;;;;;4937201;29;20035;-46
2022/08/31 00:56:21;;;;;;;2.42;1.02;;;23.80;42.40;;;;;;4951176;28;20035;-48
2022/08/31 00:58:50;;;;;;;2.50;1.08;;;23.80;42.40;;;;;;4936755;29;20064;-48
2022/08/31 01:01:23;;;;;;;2.55;1.25;;;23.70;42.40;;;;;;4935111;29;20059;-47
2022/08/31 01:03:50;;;;;;;3.88;0.90;;;23.70;42.50;;;;;;4968427;28;20062;-48
2022/08/31 01:06:17;;;;;;;2.08;1.02;;;23.70;42.80;;;;;;4950279;29;20066;-47
2022/08/31 01:08:46;;;;;;;3.00;1.08;;;23.70;42.90;;;;;;4934798;29;20479;-46
2022/08/31 01:11:19;;;;;;;1.88;1.00;;;23.70;43.00;;;;;;4939451;29;20500;-47
2022/08/31 01:13:46;;;;;;;1.45;0.93;;;23.70;43.00;;;;;;4961304;28;20052;-47
2022/08/31 01:16:20;;;;;;;1.55;0.95;;;23.70;43.20;;;;;;4963309;28;20068;-47
2022/08/31 01:18:51;;;;;;;2.72;1.08;;;23.70;43.80;;;;;;4954824;28;20051;-47
2022/08/31 01:21:20;;;;;;;5.80;1.85;;;23.70;44.40;;;;;;4952759;28;20036;-48
2022/08/31 01:23:52;;;;;;;3.65;1.98;;;23.60;46.00;;;;;;4954479;28;20460;-47
2022/08/31 01:26:24;;;;;;;5.47;1.77;;;23.70;47.50;;;;;;4929941;29;20051;-48
2022/08/31 01:28:59;;;;;;;1.88;1.17;;;23.60;47.40;;;;;;4953214;29;20047;-48
2022/08/31 01:31:41;;;;;;;2.05;1.38;;;23.60;48.00;;;;;;4947832;28;20114;-47
2022/08/31 01:34:14;;;;;;;3.22;1.20;;;23.60;49.30;;;;;;4954232;28;20470;-48
2022/08/31 01:36:46;;;;;;;2.92;1.77;;;23.50;48.40;;;;;;4946724;29;20468;-48
2022/08/31 01:39:18;;;;;;;1.58;1.30;;;23.40;49.60;;;;;;4936260;29;20397;-46
2022/08/31 01:41:45;;;;;;;4.78;1.65;;;23.40;49.20;;;;;;4950849;29;20048;-47
2022/08/31 01:44:17;;;;;;;2.15;1.90;;;23.30;49.40;;;;;;4947413;28;20047;-50
2022/08/31 01:46:46;;;;;;;3.77;2.33;;;23.30;50.50;;;;;;4953226;28;20058;-45
2022/08/31 01:49:15;;;;;;;4.43;1.70;;;23.20;51.40;;;;;;4950110;29;20309;-48
2022/08/31 01:51:47;;;;;;;3.85;1.80;;;23.20;51.40;;;;;;4951882;29;20075;-47
2022/08/31 01:54:17;;;;;;;7.18;1.92;;;23.10;53.10;;;;;;4949352;28;20189;-48
2022/08/31 01:56:46;;;;;;;6.72;2.17;;;23.00;53.10;;;;;;4940067;29;20055;-49
2022/08/31 01:59:23;;;;;;;1.70;1.50;;;22.90;53.40;;;;;;4949851;29;20058;-48
2022/08/31 02:01:57;;;;;;;3.40;1.88;;;22.90;53.30;;;;;;4966341;28;20134;-47
2022/08/31 02:04:27;;;;;;;3.22;2.03;;;22.80;53.40;;;;;;4940237;28;20058;-47
2022/08/31 02:06:58;;;;;;;2.70;1.92;;;22.70;54.10;;;;;;4933473;29;20047;-49
2022/08/31 02:09:25;;;;;;;4.30;2.03;;;22.70;54.10;;;;;;4936432;28;20059;-46
2022/08/31 02:11:57;;;;;;;1.80;1.55;;;22.60;53.60;;;;;;4942392;29;20040;-45
2022/08/31 02:14:23;;;;;;;2.90;1.58;;;22.60;54.50;;;;;;4952339;28;20590;-48
2022/08/31 02:16:50;;;;;;;2.35;2.10;;;22.50;54.20;;;;;;4952041;29;20110;-47
2022/08/31 02:19:17;;;;;;;2.08;1.98;;;22.50;54.50;;;;;;4951257;29;20043;-47
2022/08/31 02:21:46;;;;;;;3.05;2.13;;;22.50;55.10;;;;;;4947688;29;20054;-45
2022/08/31 02:24:13;;;;;;;3.17;1.80;;;22.40;55.50;;;;;;4949214;28;20051;-46
2022/08/31 02:26:43;;;;;;;2.20;1.83;;;22.40;55.50;;;;;;4949347;29;20055;-46
2022/08/31 02:29:10;;;;;;;3.72;1.98;;;22.30;55.60;;;;;;4947922;29;20051;-48
2022/08/31 02:31:37;;;;;;;2.45;1.98;;;22.30;55.70;;;;;;4951916;29;20130;-46
2022/08/31 02:34:09;;;;;;;2.25;2.05;;;22.30;56.00;;;;;;4934419;29;20056;-47
2022/08/31 02:36:36;;;;;;;2.35;1.65;;;22.20;55.90;;;;;;4934240;29;20039;-47
2022/08/31 02:39:04;;;;;;;2.42;2.20;;;22.20;56.10;;;;;;4944141;29;20435;-50
2022/08/31 02:41:32;;;;;;;5.30;2.05;;;22.20;56.70;;;;;;4946576;29;20389;-47
2022/08/31 02:43:59;;;;;;;4.43;2.63;;;22.10;56.90;;;;;;4948097;28;20113;-47
2022/08/31 02:46:26;;;;;;;4.05;2.08;;;22.10;57.00;;;;;;4946370;28;20117;-49
2022/08/31 02:49:09;;;;;;;1.90;1.75;;;22.10;56.90;;;;;;4949725;29;20036;-47
2022/08/31 02:51:39;;;;;;;2.58;1.88;;;22.00;56.70;;;;;;4944315;29;20077;-48
2022/08/31 02:54:08;;;;;;;2.38;1.90;;;22.00;57.30;;;;;;4967552;28;20043;-48
2022/08/31 02:56:39;;;;;;;3.50;2.05;;;22.00;56.80;;;;;;4943048;29;20675;-48
2022/08/31 02:59:07;;;;;;;4.05;2.20;;;22.00;57.60;;;;;;4943379;29;20060;-47
2022/08/31 03:01:41;;;;;;;2.00;1.80;;;22.00;57.60;;;;;;4949201;29;20058;-47
2022/08/31 03:04:08;;;;;;;2.40;1.98;;;21.90;57.10;;;;;;4951020;28;20564;-48
2022/08/31 03:06:36;;;;;;;2.72;2.40;;;21.90;57.40;;;;;;4947774;29;20516;-51
2022/08/31 03:09:04;;;;;;;5.80;2.38;;;21.90;57.40;;;;;;4951055;28;20044;-47
2022/08/31 03:11:31;;;;;;;3.00;2.63;;;21.90;57.40;;;;;;4950076;29;20098;-48
2022/08/31 03:13:58;;;;;;;2.72;2.17;;;21.90;57.60;;;;;;4948495;28;20049;-49
2022/08/31 03:16:27;;;;;;;2.17;1.85;;;21.80;58.00;;;;;;4945164;29;20499;-47
2022/08/31 03:18:54;;;;;;;3.83;1.80;;;21.80;58.10;;;;;;4947040;28;20039;-45
2022/08/31 03:21:20;;;;;;;2.33;2.13;;;21.80;58.10;;;;;;4947334;28;20508;-50
2022/08/31 03:23:53;;;;;;;2.17;1.98;;;21.80;58.20;;;;;;4948961;28;20047;-47
2022/08/31 03:26:20;;;;;;;3.72;2.22;;;21.80;58.60;;;;;;4959450;28;20463;-49
2022/08/31 03:28:47;;;;;;;2.55;1.55;;;21.70;58.00;;;;;;4954631;28;20043;-48
2022/08/31 03:31:39;;;;;;;3.00;2.42;;;21.80;58.10;;;;;;4949532;29;20081;-47
2022/08/31 03:34:11;;;;;;;3.72;2.20;;;21.70;58.20;;;;;;4943887;29;20603;-48
2022/08/31 03:36:44;;;;;;;3.53;1.83;;;21.70;58.80;;;;;;4952465;28;20046;-52
2022/08/31 03:39:11;;;;;;;2.17;1.88;;;21.70;58.90;;;;;;4932295;29;20107;-47
2022/08/31 03:41:38;;;;;;;4.15;2.88;;;21.70;58.50;;;;;;4938386;29;20115;-51
2022/08/31 03:44:06;;;;;;;4.47;2.78;;;21.70;58.70;;;;;;4950157;28;20085;-52
2022/08/31 03:46:35;;;;;;;2.35;2.15;;;21.70;58.90;;;;;;4950862;29;20530;-52
2022/08/31 03:49:03;;;;;;;2.13;1.95;;;21.60;58.90;;;;;;4933806;29;20091;-49
2022/08/31 03:51:33;;;;;;;4.30;2.28;;;21.60;58.90;;;;;;4939325;29;20043;-50
2022/08/31 03:54:00;;;;;;;3.25;1.80;;;21.60;58.80;;;;;;4950817;28;20047;-51
2022/08/31 03:56:27;;;;;;;3.47;2.08;;;21.60;58.90;;;;;;4939861;29;20134;-48
2022/08/31 03:58:57;;;;;;;2.42;2.22;;;21.60;58.70;;;;;;4946341;28;20415;-47
2022/08/31 04:01:46;;;;;;;2.80;1.83;;;21.60;58.90;;;;;;4947345;29;20093;-51
2022/08/31 04:04:33;;;;;;;2.08;1.92;;;21.50;58.90;;;;;;4948404;28;20174;-46
2022/08/31 04:07:20;;;;;;;2.13;1.85;;;21.50;58.20;;;;;;4949696;29;20057;-48
2022/08/31 04:10:11;;;;;;;1.75;1.65;;;21.50;58.70;;;;;;4923408;28;20147;-48
2022/08/31 04:13:04;;;;;;;2.72;1.80;;;21.50;58.90;;;;;;4948022;28;20443;-50
2022/08/31 04:15:47;;;;;;;1.85;1.75;;;21.40;58.70;;;;;;4935247;29;20054;-47
2022/08/31 04:18:29;;;;;;;2.95;1.65;;;21.40;58.90;;;;;;4936329;29;20052;-46
2022/08/31 04:20:58;;;;;;;2.22;1.80;;;21.40;59.30;;;;;;4948149;29;20066;-48
2022/08/31 04:23:28;;;;;;;1.75;1.63;;;21.40;59.00;;;;;;4950343;28;20574;-47
2022/08/31 04:25:56;;;;;;;2.33;1.60;;;21.40;59.00;;;;;;4934192;29;20111;-47
2022/08/31 04:28:25;;;;;;;2.60;1.63;;;21.40;59.30;;;;;;4932664;29;20055;-48
2022/08/31 04:30:52;;;;;;;2.17;2.00;;;21.40;59.20;;;;;;4948003;28;20048;-47
2022/08/31 04:33:21;;;;;;;2.17;1.98;;;21.40;59.20;;;;;;4947386;28;20087;-48
2022/08/31 04:35:58;;;;;;;2.97;1.65;;;21.30;59.40;;;;;;4950228;29;20604;-47
2022/08/31 04:38:26;;;;;;;1.85;1.50;;;21.30;59.20;;;;;;4960634;28;20046;-46
2022/08/31 04:40:53;;;;;;;3.20;1.77;;;21.30;59.10;;;;;;4951785;29;20187;-48
2022/08/31 04:43:25;;;;;;;1.50;1.38;;;21.30;59.20;;;;;;4946845;28;20090;-46
2022/08/31 04:45:51;;;;;;;2.45;1.85;;;21.30;59.20;;;;;;4953913;29;20528;-48
2022/08/31 04:48:21;;;;;;;3.47;1.67;;;21.20;59.20;;;;;;4950915;29;20044;-46
2022/08/31 04:50:57;;;;;;;2.88;1.73;;;21.20;59.30;;;;;;4955383;29;20523;-45
2022/08/31 04:53:27;;;;;;;2.65;1.40;;;21.10;59.00;;;;;;4948630;28;20162;-50
2022/08/31 04:55:54;;;;;;;2.50;1.83;;;21.10;58.90;;;;;;4954048;29;20063;-49
2022/08/31 04:58:22;;;;;;;3.38;2.42;;;21.10;59.10;;;;;;4938193;29;20032;-45
2022/08/31 05:00:51;;;;;;;1.75;1.40;;;21.10;59.10;;;;;;4949145;29;20074;-49
2022/08/31 05:03:27;;;;;;;2.20;1.35;;;21.00;59.00;;;;;;4945482;28;20051;-45
2022/08/31 05:05:55;;;;;;;2.83;1.40;;;21.00;58.80;;;;;;4948208;29;20079;-50
2022/08/31 05:08:26;;;;;;;1.42;1.33;;;21.00;58.80;;;;;;4938593;28;20732;-48
2022/08/31 05:10:53;;;;;;;1.85;1.70;;;20.90;59.00;;;;;;4943275;29;20139;-48
2022/08/31 05:13:20;;;;;;;2.13;1.95;;;20.90;58.80;;;;;;4943724;28;20126;-46
2022/08/31 05:15:47;;;;;;;1.80;1.58;;;20.80;58.80;;;;;;4941143;29;20043;-47
2022/08/31 05:18:25;;;;;;;3.13;1.83;;;20.80;58.90;;;;;;4963431;28;20046;-49
2022/08/31 05:20:55;;;;;;;2.05;1.77;;;20.70;58.90;;;;;;4958547;28;20118;-50
2022/08/31 05:23:24;;;;;;;3.40;1.90;;;20.80;59.10;;;;;;4952111;28;20050;-49
2022/08/31 05:25:51;;;;;;;1.70;1.33;;;20.70;59.00;;;;;;4943052;29;20075;-51
2022/08/31 05:28:22;;;;;;;1.65;1.27;;;20.60;59.00;;;;;;4946067;29;20129;-52
2022/08/31 05:30:49;;;;;;;1.58;1.30;;;20.60;59.00;;;;;;4935296;29;20076;-50
2022/08/31 05:33:30;;;;;;;2.03;1.30;;;20.60;59.00;;;;;;4931731;29;20050;-51
2022/08/31 05:36:03;;;;;;;2.30;1.40;;;20.50;59.10;;;;;;4947653;29;20049;-50
2022/08/31 05:38:30;;;;;;;4.10;1.67;;;20.50;59.30;;;;;;4953909;28;20051;-50
2022/08/31 05:41:05;;;;;;;1.77;1.63;;;20.50;59.40;;;;;;4941391;29;20055;-50
2022/08/31 05:43:32;;;;;;;2.30;1.48;;;20.50;59.50;;;;;;4932322;28;20052;-47
2022/08/31 05:45:59;;;;;;;2.75;1.48;;;20.50;59.40;;;;;;4949155;29;20047;-47
2022/08/31 05:48:32;;;;;;;2.47;1.75;;;20.40;59.60;;;;;;4942459;28;20059;-46
2022/08/31 05:51:02;;;;;;;4.15;1.33;;;20.40;59.70;;;;;;4950371;29;20098;-50
2022/08/31 05:53:34;;;;;;;2.75;1.48;;;20.40;59.90;;;;;;4950016;28;20043;-51
2022/08/31 05:56:09;;;;;;;2.00;1.45;;;20.40;59.70;;;;;;4947619;29;20051;-49
2022/08/31 05:58:38;;;;;;;1.70;1.60;;;20.40;60.30;;;;;;4936676;28;20062;-51
2022/08/31 06:01:13;;;;;;;5.47;1.73;;;20.50;60.00;;;;;;4950204;29;20457;-50
2022/08/31 06:04:02;;;;;;;2.83;1.60;;;20.40;59.90;;;;;;4949633;28;20432;-48
2022/08/31 06:06:29;;;;;;;2.72;1.40;;;20.50;59.60;;;;;;4950803;29;20452;-48
2022/08/31 06:08:59;;;;;;;1.63;1.42;;;20.50;59.40;;;;;;4949796;29;20061;-48
2022/08/31 06:11:30;;;;;;;2.63;1.63;;;20.50;60.00;;;;;;4944937;29;20141;-48
2022/08/31 06:13:59;;;;;;;2.70;1.80;;;20.50;59.10;;;;;;4944498;28;20055;-51
2022/08/31 06:16:31;;;;;;;;;;;20.50;59.20;;;;;;4946081;29;20044;-51
2022/08/31 06:19:03;;;;;;;2.97;1.77;;;20.60;58.70;;;;;;4947041;29;19945;-47
2022/08/31 06:21:33;;;;;;;1.83;1.55;;;20.60;59.40;;;;;;4949024;28;20102;-47
2022/08/31 06:24:04;;;;;;;3.05;1.90;;;20.60;58.60;;;;;;4950764;28;20390;-51
2022/08/31 06:26:34;;;;;;;1.33;1.25;;;20.70;58.80;;;;;;4937164;29;20039;-47
2022/08/31 06:29:05;;;;;;;1.88;1.40;;;20.70;58.50;;;;;;4934985;29;20064;-49
2022/08/31 06:31:37;;;;;;;1.60;1.50;;;20.70;58.20;;;;;;4948359;29;20043;-47
2022/08/31 06:34:07;;;;;;;1.58;1.48;;;20.70;58.20;;;;;;4950941;28;20098;-48
2022/08/31 06:36:55;;;;;;;2.35;1.30;;;20.80;57.90;;;;;;4944785;29;20471;-49
2022/08/31 06:39:33;;;;;;;3.35;1.75;;;20.80;57.80;;;;;;4944007;29;20062;-46
2022/08/31 06:42:29;;;;;;;3.17;1.50;;;20.80;57.70;;;;;;4936702;29;20063;-47
2022/08/31 06:45:04;;;;;;;5.57;2.10;;;20.80;58.00;;;;;;4933076;29;20058;-48
2022/08/31 06:48:00;;;;;;;2.78;1.80;;;20.80;57.80;;;;;;4930550;29;20119;-49
2022/08/31 06:50:29;;;;;;;3.85;1.92;;;20.90;57.70;;;;;;4945322;29;20039;-46
2022/08/31 06:52:57;;;;;;;3.05;1.88;;;20.80;57.60;;;;;;4943943;28;20047;-46
2022/08/31 06:55:44;;;;;;;2.28;1.67;;;20.90;57.60;;;;;;4936678;28;20061;-46
2022/08/31 06:58:32;;;;;;;3.13;2.70;;;20.90;57.20;;;;;;4943456;29;20459;-49
2022/08/31 07:01:14;;;;;;;;;;;20.90;56.80;;;;;;4948701;29;20051;-52
2022/08/31 07:03:59;;;;;;;2.25;1.77;;;21.00;56.70;;;;;;4960219;28;19922;-50
2022/08/31 07:06:32;;;;;;;2.58;1.95;;;21.00;56.60;;;;;;4961755;28;20062;-50
2022/08/31 07:09:00;;;;;;;;;;;21.00;56.90;;;;;;4940495;28;20052;-52
2022/08/31 07:11:33;;;;;;;2.25;1.63;;;21.10;56.30;;;;;;4950787;29;19926;-50
2022/08/31 07:14:02;;;;;;;2.80;1.90;;;21.10;56.40;;;;;;4942907;28;20050;-52
2022/08/31 07:16:30;;;;;;;4.00;1.95;;;21.10;56.40;;;;;;4932579;29;20504;-52
2022/08/31 07:19:00;;;;;;;2.05;1.88;;;21.20;56.70;;;;;;4938556;29;20040;-52
2022/08/31 07:21:30;;;;;;;3.88;2.00;;;21.20;56.80;;;;;;4948261;29;20048;-50
2022/08/31 07:23:58;;;;;;;2.75;2.25;;;21.30;56.60;;;;;;4949778;28;20065;-51
2022/08/31 07:26:38;;;;;;;5.30;2.50;;;21.30;56.70;;;;;;4944591;29;20044;-51
2022/08/31 07:29:10;;;;;;;3.22;2.30;;;21.50;56.70;;;;;;4942777;29;20054;-49
2022/08/31 07:31:47;;;;;;;8.27;2.17;;;21.50;56.40;;;;;;4943705;29;20058;-49
2022/08/31 07:34:20;;;;;;;4.43;2.53;;;21.60;56.30;;;;;;4938313;28;20059;-48
2022/08/31 07:42:42;;;;;;;5.05;2.00;;;21.80;55.40;;;;;;4950832;29;20045;-47
2022/08/31 07:45:20;;;;;;;5.30;2.78;;;22.00;55.50;;;;;;4946860;29;20465;-50
2022/08/31 07:47:53;;;;;;;5.18;2.95;;;22.00;55.00;;;;;;4948581;29;20051;-49
2022/08/31 07:50:25;;;;;;;2.72;1.98;;;22.10;54.80;;;;;;4949251;29;20051;-49
2022/08/31 07:53:15;;;;;;;4.13;2.78;;;22.20;54.70;;;;;;4941805;28;20178;-47
2022/08/31 07:55:57;;;;;;;3.33;2.60;;;22.30;54.60;;;;;;4937139;29;20095;-52
2022/08/31 07:58:31;;;;;;;4.25;2.05;;;22.30;54.50;;;;;;4939263;28;20048;-49
2022/08/31 08:01:01;;;;;;;3.95;2.85;;;22.40;54.50;;;;;;4947881;29;20516;-52
2022/08/31 08:03:35;;;;;;;3.67;2.22;;;22.40;54.20;;;;;;4947678;28;20106;-47
2022/08/31 08:06:22;;;;;;;3.13;1.98;;;22.50;54.10;;;;;;4945165;29;20099;-48
2022/08/31 08:09:05;;;;;;;3.30;2.30;;;22.60;53.80;;;;;;4957178;28;20102;-48
2022/08/31 08:12:10;;;;;;;4.20;2.30;;;22.60;53.60;;;;;;4936446;29;20062;-46
2022/08/31 08:14:45;;;;;;;6.07;2.80;;;22.60;53.20;;;;;;4941663;29;20062;-48
2022/08/31 08:17:26;;;;;;;10.57;3.17;;;22.60;53.20;;;;;;4943945;29;20058;-49
2022/08/31 08:20:16;;;;;;;4.95;2.45;;;22.60;53.00;;;;;;4935823;29;20059;-47
2022/08/31 08:23:12;;;;;;;9.35;3.13;;;22.60;53.00;;;;;;4945437;28;20440;-48
2022/08/31 08:26:08;;;;;;;3.55;2.33;;;22.60;52.80;;;;;;4951974;29;20111;-47
2022/08/31 08:29:18;;;;;;;5.25;2.28;;;22.60;52.90;;;;;;4934364;28;20126;-47
2022/08/31 08:31:53;;;;;;;2.58;2.00;;;22.60;52.90;;;;;;4934960;29;20052;-47
2022/08/31 08:34:24;;;;;;;5.32;2.40;;;22.70;53.00;;;;;;4946886;29;20142;-47
2022/08/31 08:36:59;;;;;;;5.30;2.78;;;22.70;53.20;;;;;;4945845;28;20047;-51
2022/08/31 08:39:26;;;;;;;5.63;2.38;;;22.80;52.90;;;;;;4951849;29;20051;-49
2022/08/31 08:42:23;;;;;;;5.82;2.65;;;22.80;52.80;;;;;;4945260;29;20657;-47
2022/08/31 08:44:50;;;;;;;6.65;2.60;;;22.90;52.40;;;;;;4961932;28;20063;-51
2022/08/31 08:47:24;;;;;;;4.95;2.80;;;22.90;52.30;;;;;;4965346;28;20047;-51
2022/08/31 08:50:05;;;;;;;5.57;2.63;;;23.00;52.20;;;;;;4934194;29;20059;-50
2022/08/31 08:52:43;;;;;;;6.85;2.85;;;23.00;52.00;;;;;;4944453;28;20041;-50
2022/08/31 08:55:17;;;;;;;4.05;2.33;;;23.00;51.80;;;;;;4944639;28;20084;-48
2022/08/31 08:57:55;;;;;;;2.45;2.22;;;23.10;51.80;;;;;;4949968;29;20131;-48
2022/08/31 09:00:24;;;;;;;2.58;2.38;;;23.00;51.70;;;;;;4943418;29;20043;-52
2022/08/31 09:03:00;;;;;;;5.68;2.85;;;23.00;51.90;;;;;;4951275;28;20385;-47
2022/08/31 09:06:08;;;;;;;4.82;2.90;;;23.00;51.70;;;;;;4950282;29;20122;-48
2022/08/31 09:09:07;;;;;;;4.07;2.30;;;23.10;51.90;;;;;;4957705;28;20050;-47
2022/08/31 09:11:45;;;;;;;5.65;2.65;;;23.20;51.70;;;;;;4951029;28;20051;-49
2022/08/31 09:14:46;;;;;;;8.55;2.92;;;23.20;51.80;;;;;;4949976;28;20047;-49
2022/08/31 09:17:31;;;;;;;5.05;2.38;;;23.30;51.30;;;;;;4951544;28;20040;-47
2022/08/31 09:19:58;;;;;;;3.55;2.83;;;23.30;51.50;;;;;;4943133;28;20157;-48
2022/08/31 09:22:57;;;;;;;3.05;2.40;;;23.40;51.30;;;;;;4953569;29;20043;-51
2022/08/31 09:25:33;;;;;;;3.17;2.25;;;23.40;50.90;;;;;;4960679;28;20043;-51
2022/08/31 09:28:39;;;;;;;2.87;1.93;;;23.50;50.90;;;;;;4948454;29;20051;-49
2022/08/31 09:31:05;;;;;;;3.35;2.03;;;23.60;50.80;;;;;;4951142;29;20515;-50
2022/08/31 09:33:47;;;;;;;3.40;1.95;;;23.60;51.00;;;;;;4947711;28;20547;-49
2022/08/31 09:36:17;;;;;;;4.63;2.50;;;23.70;50.50;;;;;;4934950;29;20540;-48
2022/08/31 09:38:45;;;;;;;7.00;3.17;;;23.80;50.70;;;;;;4942605;29;20133;-46
2022/08/31 09:41:27;;;;;;;4.53;2.20;;;23.90;50.40;;;;;;4952177;29;20065;-50
2022/08/31 09:44:22;;;;;;;3.92;2.38;;;23.90;50.00;;;;;;4946410;28;20102;-47
2022/08/31 09:46:58;;;;;;;4.95;2.53;;;24.00;49.90;;;;;;4954192;28;20047;-51
2022/08/31 09:49:35;;;;;;;8.88;2.75;;;24.10;49.90;;;;;;4949675;28;20051;-50
2022/08/31 09:55:18;;;;;;;7.18;3.25;;;24.20;49.60;;;;;;4934622;29;20051;-50
2022/08/31 09:57:55;;;;;;;4.60;2.47;;;24.20;49.40;;;;;;4945531;29;20043;-48
2022/08/31 10:00:37;;;;;;;2.50;2.20;;;24.30;49.40;;;;;;4942323;29;20464;-51
2022/08/31 10:03:19;;;;;;;7.07;2.97;;;24.30;49.40;;;;;;4943030;28;20437;-50
2022/08/31 10:05:50;;;;;;;3.40;1.98;;;24.40;49.00;;;;;;4933845;29;20127;-49
2022/08/31 10:08:38;;;;;;;6.20;2.40;;;24.40;49.00;;;;;;4950072;29;20039;-49
2022/08/31 10:11:14;;;;;;;4.93;2.47;;;24.40;48.80;;;;;;4951530;28;20046;-51
2022/08/31 10:13:56;;;;;;;4.35;2.40;;;24.40;49.20;;;;;;4933825;29;20047;-50
2022/08/31 10:16:29;;;;;;;3.97;2.90;;;24.40;49.10;;;;;;4937286;29;20054;-51
2022/08/31 10:19:12;;;;;;;5.97;3.42;;;24.50;48.80;;;;;;4948745;29;20055;-51
2022/08/31 10:21:52;;;;;;;6.18;2.97;;;24.50;48.70;;;;;;4950681;28;20098;-51
2022/08/31 10:24:43;;;;;;;7.90;2.72;;;24.50;49.00;;;;;;4951082;28;20047;-50
2022/08/31 10:27:31;;;;;;;3.70;2.63;;;24.60;48.70;;;;;;4966359;28;20070;-49
2022/08/31 10:30:05;;;;;;;9.75;3.10;;;24.70;48.70;;;;;;4951190;28;20047;-48
2022/08/31 10:32:36;;;;;;;2.78;2.58;;;24.80;48.30;;;;;;4950869;28;20043;-50
2022/08/31 10:35:13;;;;;;;2.28;2.08;;;24.90;48.40;;;;;;4947328;29;20105;-51
2022/08/31 10:37:56;;;;;;;5.10;2.45;;;25.00;48.20;;;;;;4948418;29;20067;-49
2022/08/31 10:40:40;;;;;;;3.28;2.67;;;25.10;48.10;;;;;;4944158;29;20127;-52
2022/08/31 10:43:20;;;;;;;7.43;3.50;;;25.20;47.60;;;;;;4953014;28;20043;-50
2022/08/31 10:45:52;;;;;;;4.00;2.90;;;25.40;47.60;;;;;;5001700;23;20585;-47
2022/08/31 10:48:32;;;;;;;5.10;2.78;;;25.50;47.80;;;;;;4964794;28;20070;-52
2022/08/31 10:51:21;;;;;;;3.58;2.75;;;25.60;47.10;;;;;;4972015;28;20035;-47
2022/08/31 10:54:15;;;;;;;5.90;3.00;;;25.60;46.90;;;;;;4965371;28;20042;-50
2022/08/31 10:56:57;;;;;;;4.00;3.15;;;25.70;46.60;;;;;;4945383;28;20121;-49
2022/08/31 10:59:48;;;;;;;3.25;2.38;;;25.70;46.40;;;;;;4948331;29;20464;-48
2022/08/31 11:02:24;;;;;;;4.40;2.60;;;25.80;46.40;;;;;;4945473;29;20039;-49
2022/08/31 11:05:17;;;;;;;3.72;3.38;;;25.80;46.50;;;;;;4951763;28;20051;-50
2022/08/31 11:08:08;;;;;;;3.55;3.10;;;25.90;46.20;;;;;;4945931;28;20519;-50
2022/08/31 11:10:48;;;;;;;3.47;3.03;;;25.90;46.50;;;;;;4946345;29;20047;-48
2022/08/31 11:13:35;;;;;;;5.13;2.80;;;26.00;45.70;;;;;;4948345;28;20039;-48
2022/08/31 11:16:16;;;;;;;4.43;3.08;;;26.10;45.70;;;;;;4952136;28;20047;-47
2022/08/31 11:19:07;;;;;;;3.05;2.53;;;26.10;45.50;;;;;;4946080;28;20390;-49
2022/08/31 11:22:12;;;;;;;5.90;2.97;;;26.20;45.60;;;;;;4940995;29;20058;-51
2022/08/31 11:25:23;;;;;;;6.10;3.40;;;26.20;45.50;;;;;;4947105;29;20516;-48
2022/08/31 11:28:08;;;;;;;5.18;3.13;;;26.30;45.40;;;;;;4932276;29;20138;-49
2022/08/31 11:30:43;;;;;;;8.23;3.47;;;26.40;45.70;;;;;;4935731;29;20563;-47
2022/08/31 11:33:23;;;;;;;3.60;2.90;;;26.50;45.50;;;;;;4946273;29;20042;-48
2022/08/31 11:35:59;;;;;;;6.38;3.30;;;26.70;45.70;;;;;;4951298;28;20051;-50
2022/08/31 11:38:48;;;;;;;7.60;3.03;;;26.70;45.40;;;;;;4933085;29;20417;-52
2022/08/31 11:41:30;;;;;;;4.95;3.03;;;26.90;45.20;;;;;;4942658;29;20435;-48
2022/08/31 11:44:00;;;;;;;4.05;2.70;;;27.10;44.90;;;;;;4954716;28;20047;-48
2022/08/31 11:46:27;;;;;;;3.28;2.78;;;27.30;45.20;;;;;;4956160;29;20106;-50
2022/08/31 11:48:54;;;;;;;3.40;2.78;;;27.50;44.40;;;;;;4956519;29;20051;-48
2022/08/31 11:51:34;;;;;;;5.47;3.10;;;27.70;44.30;;;;;;4949022;29;20066;-49
2022/08/31 11:54:40;;;;;;;3.10;2.65;;;28.00;43.80;;;;;;4955331;28;20074;-51
2022/08/31 11:57:14;;;;;;;3.45;3.00;;;28.10;43.90;;;;;;4956379;28;20500;-48
2022/08/31 11:59:45;;;;;;;2.97;2.70;;;28.30;43.60;;;;;;4949348;29;20051;-52
2022/08/31 12:02:22;;;;;;;6.82;3.42;;;28.50;43.60;;;;;;4955926;29;20047;-50
2022/08/31 12:04:57;;;;;;;3.13;2.35;;;28.70;42.40;;;;;;4955917;28;20079;-48
2022/08/31 12:07:46;;;;;;;4.47;2.75;;;28.90;42.60;;;;;;4953922;28;20058;-50
2022/08/31 12:10:23;;;;;;;2.45;2.25;;;29.00;42.10;;;;;;4950201;29;20044;-48
2022/08/31 12:13:17;;;;;;;2.13;2.00;;;29.10;41.70;;;;;;4956833;29;20050;-49
2022/08/31 12:15:55;;;;;;;2.33;2.05;;;29.20;41.70;;;;;;4936907;29;20487;-53
2022/08/31 12:18:47;;;;;;;3.47;2.90;;;29.40;41.40;;;;;;4942367;29;20060;-51
2022/08/31 12:24:44;;;;;;;2.50;2.30;;;29.70;41.10;;;;;;4954660;28;20195;-49
2022/08/31 12:27:51;;;;;;;2.22;2.03;;;29.80;40.00;;;;;;4952732;28;20051;-48
2022/08/31 12:30:27;;;;;;;2.58;2.13;;;29.90;40.20;;;;;;4954652;29;20046;-51
2022/08/31 12:33:03;;;;;;;3.38;2.10;;;30.10;40.10;;;;;;4955799;28;20047;-54
2022/08/31 12:35:35;;;;;;;4.35;2.03;;;30.30;40.00;;;;;;4955410;28;20061;-49
2022/08/31 12:38:09;;;;;;;2.80;2.60;;;30.30;40.20;;;;;;4951734;29;20043;-48
2022/08/31 12:40:55;;;;;;;3.35;2.35;;;30.30;39.70;;;;;;4955001;28;20046;-47
2022/08/31 12:43:33;;;;;;;3.50;2.67;;;30.40;39.70;;;;;;4946228;29;20098;-51
2022/08/31 12:46:00;;;;;;;3.13;2.60;;;30.50;39.10;;;;;;4951896;28;20074;-53
2022/08/31 12:48:56;;;;;;;3.92;3.15;;;30.60;39.10;;;;;;4949903;29;20043;-48
2022/08/31 12:51:50;;;;;;;3.45;2.88;;;30.60;38.50;;;;;;4955027;28;20040;-49
2022/08/31 12:54:38;;;;;;;2.60;2.40;;;30.70;38.70;;;;;;4954093;28;20411;-50
2022/08/31 12:57:06;;;;;;;3.42;2.72;;;30.70;38.70;;;;;;4948140;28;20503;-49
2022/08/31 12:59:57;;;;;;;3.47;2.05;;;30.80;38.80;;;;;;4953828;28;20102;-51
2022/08/31 13:02:30;;;;;;;3.80;2.47;;;30.90;38.50;;;;;;4936347;29;20054;-52
2022/08/31 13:04:59;;;;;;;5.50;2.55;;;30.90;38.40;;;;;;4938684;28;20075;-49
2022/08/31 13:07:33;;;;;;;2.70;2.50;;;31.00;38.20;;;;;;4961964;28;20098;-50
2022/08/31 13:10:03;;;;;;;;;;;31.00;38.30;;;;;;4952063;29;20058;-51
2022/08/31 13:12:34;;;;;;;3.15;2.50;;;31.00;39.30;;;;;;4954827;28;19922;-49
2022/08/31 13:15:03;;;;;;;2.97;2.78;;;31.10;38.80;;;;;;4949889;28;20090;-52
2022/08/31 13:17:37;;;;;;;2.58;2.17;;;31.10;38.40;;;;;;4954627;28;20043;-50
2022/08/31 13:20:06;;;;;;;3.38;2.63;;;31.20;38.30;;;;;;4953704;28;20081;-49
2022/08/31 13:22:40;;;;;;;2.40;2.20;;;31.40;38.50;;;;;;4950949;28;20047;-49
2022/08/31 13:25:18;;;;;;;3.30;2.80;;;31.50;38.10;;;;;;4947934;28;20047;-50
2022/08/31 13:27:50;;;;;;;2.38;2.17;;;31.60;37.60;;;;;;4955011;29;20401;-52
2022/08/31 13:30:19;;;;;;;2.50;2.30;;;31.80;37.30;;;;;;4949619;28;20047;-47
2022/08/31 13:32:50;;;;;;;2.17;2.08;;;31.80;37.30;;;;;;4954647;28;20046;-47
2022/08/31 13:35:20;;;;;;;4.55;2.70;;;31.80;37.10;;;;;;4952925;28;20043;-47
2022/08/31 13:38:04;;;;;;;5.68;3.80;;;31.80;37.10;;;;;;4954447;29;20386;-49
2022/08/31 13:40:35;;;;;;;2.63;2.42;;;31.70;37.00;;;;;;4947892;29;20047;-47
2022/08/31 13:43:06;;;;;;;3.30;2.97;;;31.70;37.70;;;;;;4948761;28;20074;-48
2022/08/31 13:45:56;;;;;;;2.65;2.40;;;31.90;37.60;;;;;;4952997;28;20530;-48
2022/08/31 13:48:29;;;;;;;6.45;2.63;;;32.50;37.70;;;;;;4946456;28;20054;-51